Spirit — DH3230 — position and weather

sailwx.info

Track history (hours):
 
Tides and Currents Weather Stations Pressure Air Temp Water Temp Dewpoint Dewpoint Depression Visibility Wind Speed Wind Dir Waves Ship Positions

Spirit

Last reported at 2017-Oct-22 16:03 UTC. Time now 2017-Nov-21 12:15 UTC.
Position N 27°46' W 015°44'.
Warning: this ship's position is 29 days out of date.

Length 14 m.

Type: Sailing vessel. MMSI: 211369700.

Date/timePositionNaut miles runAvg speedWind from/ knotsBaromVisibWave heightAir tempDewpointWater temp
2017-Oct-22 16:03N 27°46' W 015°44'0 0.9
2017-Oct-22 15:44N 27°47' W 015°44'1 1.7
2017-Oct-22 15:24N 27°46' W 015°44'3 0.1
2017-Oct-20 13:36N 27°49' W 015°46'0 0.0
2017-Oct-20 13:30N 27°49' W 015°46'0 0.0
2017-Oct-20 10:24N 27°49' W 015°46'25 1.1
2017-Oct-19 12:16N 28°00' W 015°21'1 4.8
2017-Oct-19 11:58N 28°02' W 015°22'2 4.3
2017-Oct-19 11:28N 28°04' W 015°23'2 4.2
2017-Oct-19 10:57N 28°06' W 015°24'2 3.4
2017-Oct-19 10:27N 28°07' W 015°25'1 1.3
2017-Oct-19 10:00N 28°07' W 015°25'0 0.0
2017-Oct-19 09:21N 28°07' W 015°25'0 0.0
2017-Oct-19 08:51N 28°07' W 015°25'0 0.0
2017-Oct-19 08:21N 28°07' W 015°25'0 0.0
2017-Oct-19 07:54N 28°07' W 015°25'0 0.0
2017-Oct-19 07:24N 28°07' W 015°25'0 0.0
2017-Oct-19 06:54N 28°07' W 015°25'0 0.0
2017-Oct-19 06:24N 28°07' W 015°25'0 0.0
2017-Oct-19 05:54N 28°07' W 015°25'0 0.0
2017-Oct-19 05:24N 28°07' W 015°25'0 0.0
2017-Oct-19 04:57N 28°07' W 015°25'0 0.0
2017-Oct-19 04:27N 28°07' W 015°25'0 0.0
2017-Oct-19 03:57N 28°07' W 015°25'0 0.0
2017-Oct-19 03:27N 28°07' W 015°25'0 0.0
2017-Oct-19 02:57N 28°07' W 015°25'0 0.0
2017-Oct-19 02:30N 28°07' W 015°25'0 0.0
2017-Oct-19 02:00N 28°07' W 015°25'0 0.0
2017-Oct-19 01:30N 28°07' W 015°25'0 0.0
2017-Oct-19 01:00N 28°07' W 015°25'0 0.0
2017-Oct-19 00:30N 28°07' W 015°25'0 0.0
2017-Oct-19 00:00N 28°07' W 015°25'0 0.0
2017-Oct-18 23:30N 28°07' W 015°25'0 0.0
2017-Oct-18 23:00N 28°07' W 015°25'0 0.0
2017-Oct-18 22:30N 28°07' W 015°25'0 0.0
2017-Oct-18 22:00N 28°07' W 015°25'0 0.0
2017-Oct-18 21:30N 28°07' W 015°25'0 0.0
2017-Oct-18 21:00N 28°07' W 015°25'0 0.0
2017-Oct-18 20:30N 28°07' W 015°25'0 0.0
2017-Oct-18 20:00N 28°07' W 015°25'0 0.0
2017-Oct-18 19:21N 28°07' W 015°25'0 0.0
2017-Oct-18 18:51N 28°07' W 015°25'0 0.0
2017-Oct-18 18:21N 28°07' W 015°25'0 0.0
2017-Oct-18 17:54N 28°07' W 015°25'0 0.0
2017-Oct-18 17:24N 28°07' W 015°25'0 0.0
2017-Oct-18 16:54N 28°07' W 015°25'0 0.0
2017-Oct-18 16:24N 28°07' W 015°25'0 0.0
2017-Oct-18 15:54N 28°07' W 015°25'0 0.0
2017-Oct-18 15:21N 28°07' W 015°25'0 0.0
2017-Oct-18 14:57N 28°07' W 015°25'0 0.0
2017-Oct-18 13:57N 28°07' W 015°25'0 0.0
2017-Oct-18 13:27N 28°07' W 015°25'0 0.0
2017-Oct-18 12:57N 28°07' W 015°25'0 0.0
2017-Oct-18 12:27N 28°07' W 015°25'0 0.0
2017-Oct-18 11:57N 28°07' W 015°25'0 0.0
2017-Oct-18 11:30N 28°07' W 015°25'0 0.0
2017-Oct-18 10:57N 28°07' W 015°25'0 0.0
2017-Oct-18 10:30N 28°07' W 015°25'0 0.0
2017-Oct-18 10:00N 28°07' W 015°25'0 0.0
2017-Oct-18 09:30N 28°07' W 015°25'0 0.0
2017-Oct-18 09:00N 28°07' W 015°25'0 0.0
2017-Oct-18 08:30N 28°07' W 015°25'0 0.0
2017-Oct-18 08:00N 28°07' W 015°25'0 0.0
2017-Oct-18 07:30N 28°07' W 015°25'0 0.0
2017-Oct-18 06:51N 28°07' W 015°25'0 0.0
2017-Oct-18 06:30N 28°07' W 015°25'0 0.0
2017-Oct-18 06:00N 28°07' W 015°25'0 0.0
2017-Oct-18 05:21N 28°07' W 015°25'0 0.0
2017-Oct-18 04:51N 28°07' W 015°25'0 0.0
2017-Oct-18 04:21N 28°07' W 015°25'0 0.0
2017-Oct-18 03:54N 28°07' W 015°25'0 0.0
2017-Oct-18 03:24N 28°07' W 015°25'0 0.0
2017-Oct-18 02:54N 28°07' W 015°25'0 0.0
2017-Oct-18 02:24N 28°07' W 015°25'0 0.0
2017-Oct-18 01:54N 28°07' W 015°25'0 0.0
2017-Oct-18 01:24N 28°07' W 015°25'0 0.0
2017-Oct-18 00:57N 28°07' W 015°25'0 0.0
2017-Oct-18 00:27N 28°07' W 015°25'0 0.0
2017-Oct-17 23:57N 28°07' W 015°25'0 0.0
2017-Oct-17 23:27N 28°07' W 015°25'0 0.0
2017-Oct-17 22:57N 28°07' W 015°25'0 0.0
2017-Oct-17 22:30N 28°07' W 015°25'0 0.0
2017-Oct-17 21:57N 28°07' W 015°25'0 0.0
2017-Oct-17 21:30N 28°07' W 015°25'0 0.0
2017-Oct-17 20:57N 28°07' W 015°25'0 0.0
2017-Oct-17 20:27N 28°07' W 015°25'0 0.0
2017-Oct-17 20:00N 28°07' W 015°25'0 0.0
2017-Oct-17 19:30N 28°07' W 015°25'0 0.0
2017-Oct-17 19:00N 28°07' W 015°25'0 0.0
2017-Oct-17 18:30N 28°07' W 015°25'0 0.0
2017-Oct-17 17:39N 28°07' W 015°25'0 0.0
2017-Oct-17 17:24N 28°07' W 015°25'0 0.0
2017-Oct-17 16:57N 28°07' W 015°25'0 0.0
2017-Oct-17 16:27N 28°07' W 015°25'0 0.0
2017-Oct-17 15:57N 28°07' W 015°25'0 0.0
2017-Oct-17 15:12N 28°07' W 015°25'0 0.0
2017-Oct-17 14:57N 28°07' W 015°25'0 0.0
2017-Oct-17 14:27N 28°07' W 015°25'0 0.0
2017-Oct-17 14:00N 28°07' W 015°25'0 0.0
2017-Oct-17 13:30N 28°07' W 015°25'0 0.0
2017-Oct-17 13:00N 28°07' W 015°25'0 0.0
2017-Oct-17 12:30N 28°07' W 015°25'0 0.0
2017-Oct-17 12:00N 28°07' W 015°25'0 0.0
2017-Oct-17 11:30N 28°07' W 015°25'0 0.0
2017-Oct-17 11:00N 28°07' W 015°25'0 0.0
2017-Oct-17 10:30N 28°07' W 015°25'0 0.0
2017-Oct-17 10:00N 28°07' W 015°25'0 0.0
2017-Oct-17 09:30N 28°07' W 015°25'0 0.0
2017-Oct-17 09:00N 28°07' W 015°25'0 0.0
2017-Oct-17 08:21N 28°07' W 015°25'0 0.0
2017-Oct-17 08:00N 28°07' W 015°25'0 0.0
2017-Oct-17 07:30N 28°07' W 015°25'0 0.0
2017-Oct-17 06:51N 28°07' W 015°25'0 0.0
2017-Oct-17 06:21N 28°07' W 015°25'0 0.0
2017-Oct-17 05:54N 28°07' W 015°25'0 0.0
2017-Oct-17 05:24N 28°07' W 015°25'0 0.0
2017-Oct-17 04:54N 28°07' W 015°25'0 0.0
2017-Oct-17 04:24N 28°07' W 015°25'0 0.0
2017-Oct-17 03:54N 28°07' W 015°25'0 0.0
2017-Oct-17 03:12N 28°07' W 015°25'0 0.0
2017-Oct-17 02:57N 28°07' W 015°25'0 0.0
2017-Oct-17 02:27N 28°07' W 015°25'0 0.0
2017-Oct-17 01:57N 28°07' W 015°25'0 0.0
2017-Oct-17 01:27N 28°07' W 015°25'0 0.0
2017-Oct-17 00:57N 28°07' W 015°25'0 0.0
2017-Oct-17 00:30N 28°07' W 015°25'0 0.0
2017-Oct-17 00:00N 28°07' W 015°25'0 0.0
2017-Oct-16 23:30N 28°07' W 015°25'0 0.0
2017-Oct-16 23:00N 28°07' W 015°25'0 0.0
2017-Oct-16 22:30N 28°07' W 015°25'0 0.0
2017-Oct-16 22:00N 28°07' W 015°25'0 0.0
2017-Oct-16 21:30N 28°07' W 015°25'0 0.0
2017-Oct-16 21:00N 28°07' W 015°25'0 0.0
2017-Oct-16 20:30N 28°07' W 015°25'0 0.0
2017-Oct-16 20:00N 28°07' W 015°25'0 0.0
2017-Oct-16 19:30N 28°07' W 015°25'0 0.0
2017-Oct-16 19:00N 28°07' W 015°25'0 0.0
2017-Oct-16 18:30N 28°07' W 015°25'0 0.0
2017-Oct-16 18:00N 28°07' W 015°25'0 0.0
2017-Oct-16 17:03N 28°07' W 015°25'0 0.0
2017-Oct-16 16:51N 28°07' W 015°25'0 0.0
2017-Oct-16 16:21N 28°07' W 015°25'0 0.0
2017-Oct-16 15:54N 28°07' W 015°25'0 0.0
2017-Oct-16 15:21N 28°07' W 015°25'0 0.0
2017-Oct-16 14:54N 28°07' W 015°25'0 0.0
2017-Oct-16 14:24N 28°07' W 015°25'  
Track history (hours):
 
Tides and Currents Weather Stations Pressure Air Temp Water Temp Dewpoint Dewpoint Depression Visibility Wind Speed Wind Dir Waves Ship Positions

Spirit

Last reported at 2017-Oct-22 16:03 UTC. Time now 2017-Nov-21 12:15 UTC.
Position N 27°46' W 015°44'.
Warning: this ship's position is 29 days out of date.

Length 14 m.

Type: Sailing vessel. MMSI: 211369700.

Date/timePositionNaut miles runAvg speedWind from/ knotsBaromVisibWave heightAir tempDewpointWater temp
2017-Oct-22 16:03N 27°46' W 015°44'0 0.9
2017-Oct-22 15:44N 27°47' W 015°44'1 1.7
2017-Oct-22 15:24N 27°46' W 015°44'3 0.1
2017-Oct-20 13:36N 27°49' W 015°46'0 0.0
2017-Oct-20 13:30N 27°49' W 015°46'0 0.0
2017-Oct-20 10:24N 27°49' W 015°46'25 1.1
2017-Oct-19 12:16N 28°00' W 015°21'1 4.8
2017-Oct-19 11:58N 28°02' W 015°22'2 4.3
2017-Oct-19 11:28N 28°04' W 015°23'2 4.2
2017-Oct-19 10:57N 28°06' W 015°24'2 3.4
2017-Oct-19 10:27N 28°07' W 015°25'1 1.3
2017-Oct-19 10:00N 28°07' W 015°25'0 0.0
2017-Oct-19 09:21N 28°07' W 015°25'0 0.0
2017-Oct-19 08:51N 28°07' W 015°25'0 0.0
2017-Oct-19 08:21N 28°07' W 015°25'0 0.0
2017-Oct-19 07:54N 28°07' W 015°25'0 0.0
2017-Oct-19 07:24N 28°07' W 015°25'0 0.0
2017-Oct-19 06:54N 28°07' W 015°25'0 0.0
2017-Oct-19 06:24N 28°07' W 015°25'0 0.0
2017-Oct-19 05:54N 28°07' W 015°25'0 0.0
2017-Oct-19 05:24N 28°07' W 015°25'0 0.0
2017-Oct-19 04:57N 28°07' W 015°25'0 0.0
2017-Oct-19 04:27N 28°07' W 015°25'0 0.0
2017-Oct-19 03:57N 28°07' W 015°25'0 0.0
2017-Oct-19 03:27N 28°07' W 015°25'0 0.0
2017-Oct-19 02:57N 28°07' W 015°25'0 0.0
2017-Oct-19 02:30N 28°07' W 015°25'0 0.0
2017-Oct-19 02:00N 28°07' W 015°25'0 0.0
2017-Oct-19 01:30N 28°07' W 015°25'0 0.0
2017-Oct-19 01:00N 28°07' W 015°25'0 0.0
2017-Oct-19 00:30N 28°07' W 015°25'0 0.0
2017-Oct-19 00:00N 28°07' W 015°25'0 0.0
2017-Oct-18 23:30N 28°07' W 015°25'0 0.0
2017-Oct-18 23:00N 28°07' W 015°25'0 0.0
2017-Oct-18 22:30N 28°07' W 015°25'0 0.0
2017-Oct-18 22:00N 28°07' W 015°25'0 0.0
2017-Oct-18 21:30N 28°07' W 015°25'0 0.0
2017-Oct-18 21:00N 28°07' W 015°25'0 0.0
2017-Oct-18 20:30N 28°07' W 015°25'0 0.0
2017-Oct-18 20:00N 28°07' W 015°25'0 0.0
2017-Oct-18 19:21N 28°07' W 015°25'0 0.0
2017-Oct-18 18:51N 28°07' W 015°25'0 0.0
2017-Oct-18 18:21N 28°07' W 015°25'0 0.0
2017-Oct-18 17:54N 28°07' W 015°25'0 0.0
2017-Oct-18 17:24N 28°07' W 015°25'0 0.0
2017-Oct-18 16:54N 28°07' W 015°25'0 0.0
2017-Oct-18 16:24N 28°07' W 015°25'0 0.0
2017-Oct-18 15:54N 28°07' W 015°25'0 0.0
2017-Oct-18 15:21N 28°07' W 015°25'0 0.0
2017-Oct-18 14:57N 28°07' W 015°25'0 0.0
2017-Oct-18 13:57N 28°07' W 015°25'0 0.0
2017-Oct-18 13:27N 28°07' W 015°25'0 0.0
2017-Oct-18 12:57N 28°07' W 015°25'0 0.0
2017-Oct-18 12:27N 28°07' W 015°25'0 0.0
2017-Oct-18 11:57N 28°07' W 015°25'0 0.0
2017-Oct-18 11:30N 28°07' W 015°25'0 0.0
2017-Oct-18 10:57N 28°07' W 015°25'0 0.0
2017-Oct-18 10:30N 28°07' W 015°25'0 0.0
2017-Oct-18 10:00N 28°07' W 015°25'0 0.0
2017-Oct-18 09:30N 28°07' W 015°25'0 0.0
2017-Oct-18 09:00N 28°07' W 015°25'0 0.0
2017-Oct-18 08:30N 28°07' W 015°25'0 0.0
2017-Oct-18 08:00N 28°07' W 015°25'0 0.0
2017-Oct-18 07:30N 28°07' W 015°25'0 0.0
2017-Oct-18 06:51N 28°07' W 015°25'0 0.0
2017-Oct-18 06:30N 28°07' W 015°25'0 0.0
2017-Oct-18 06:00N 28°07' W 015°25'0 0.0
2017-Oct-18 05:21N 28°07' W 015°25'0 0.0
2017-Oct-18 04:51N 28°07' W 015°25'0 0.0
2017-Oct-18 04:21N 28°07' W 015°25'0 0.0
2017-Oct-18 03:54N 28°07' W 015°25'0 0.0
2017-Oct-18 03:24N 28°07' W 015°25'0 0.0
2017-Oct-18 02:54N 28°07' W 015°25'0 0.0
2017-Oct-18 02:24N 28°07' W 015°25'0 0.0
2017-Oct-18 01:54N 28°07' W 015°25'0 0.0
2017-Oct-18 01:24N 28°07' W 015°25'0 0.0
2017-Oct-18 00:57N 28°07' W 015°25'0 0.0
2017-Oct-18 00:27N 28°07' W 015°25'0 0.0
2017-Oct-17 23:57N 28°07' W 015°25'0 0.0
2017-Oct-17 23:27N 28°07' W 015°25'0 0.0
2017-Oct-17 22:57N 28°07' W 015°25'0 0.0
2017-Oct-17 22:30N 28°07' W 015°25'0 0.0
2017-Oct-17 21:57N 28°07' W 015°25'0 0.0
2017-Oct-17 21:30N 28°07' W 015°25'0 0.0
2017-Oct-17 20:57N 28°07' W 015°25'0 0.0
2017-Oct-17 20:27N 28°07' W 015°25'0 0.0
2017-Oct-17 20:00N 28°07' W 015°25'0 0.0
2017-Oct-17 19:30N 28°07' W 015°25'0 0.0
2017-Oct-17 19:00N 28°07' W 015°25'0 0.0
2017-Oct-17 18:30N 28°07' W 015°25'0 0.0
2017-Oct-17 17:39N 28°07' W 015°25'0 0.0
2017-Oct-17 17:24N 28°07' W 015°25'0 0.0
2017-Oct-17 16:57N 28°07' W 015°25'0 0.0
2017-Oct-17 16:27N 28°07' W 015°25'0 0.0
2017-Oct-17 15:57N 28°07' W 015°25'0 0.0
2017-Oct-17 15:12N 28°07' W 015°25'0 0.0
2017-Oct-17 14:57N 28°07' W 015°25'0 0.0
2017-Oct-17 14:27N 28°07' W 015°25'0 0.0
2017-Oct-17 14:00N 28°07' W 015°25'0 0.0
2017-Oct-17 13:30N 28°07' W 015°25'0 0.0
2017-Oct-17 13:00N 28°07' W 015°25'0 0.0
2017-Oct-17 12:30N 28°07' W 015°25'0 0.0
2017-Oct-17 12:00N 28°07' W 015°25'0 0.0
2017-Oct-17 11:30N 28°07' W 015°25'0 0.0
2017-Oct-17 11:00N 28°07' W 015°25'0 0.0
2017-Oct-17 10:30N 28°07' W 015°25'0 0.0
2017-Oct-17 10:00N 28°07' W 015°25'0 0.0
2017-Oct-17 09:30N 28°07' W 015°25'0 0.0
2017-Oct-17 09:00N 28°07' W 015°25'0 0.0
2017-Oct-17 08:21N 28°07' W 015°25'0 0.0
2017-Oct-17 08:00N 28°07' W 015°25'0 0.0
2017-Oct-17 07:30N 28°07' W 015°25'0 0.0
2017-Oct-17 06:51N 28°07' W 015°25'0 0.0
2017-Oct-17 06:21N 28°07' W 015°25'0 0.0
2017-Oct-17 05:54N 28°07' W 015°25'0 0.0
2017-Oct-17 05:24N 28°07' W 015°25'0 0.0
2017-Oct-17 04:54N 28°07' W 015°25'0 0.0
2017-Oct-17 04:24N 28°07' W 015°25'0 0.0
2017-Oct-17 03:54N 28°07' W 015°25'0 0.0
2017-Oct-17 03:12N 28°07' W 015°25'0 0.0
2017-Oct-17 02:57N 28°07' W 015°25'0 0.0
2017-Oct-17 02:27N 28°07' W 015°25'0 0.0
2017-Oct-17 01:57N 28°07' W 015°25'0 0.0
2017-Oct-17 01:27N 28°07' W 015°25'0 0.0
2017-Oct-17 00:57N 28°07' W 015°25'0 0.0
2017-Oct-17 00:30N 28°07' W 015°25'0 0.0
2017-Oct-17 00:00N 28°07' W 015°25'0 0.0
2017-Oct-16 23:30N 28°07' W 015°25'0 0.0
2017-Oct-16 23:00N 28°07' W 015°25'0 0.0
2017-Oct-16 22:30N 28°07' W 015°25'0 0.0
2017-Oct-16 22:00N 28°07' W 015°25'0 0.0
2017-Oct-16 21:30N 28°07' W 015°25'0 0.0
2017-Oct-16 21:00N 28°07' W 015°25'0 0.0
2017-Oct-16 20:30N 28°07' W 015°25'0 0.0
2017-Oct-16 20:00N 28°07' W 015°25'0 0.0
2017-Oct-16 19:30N 28°07' W 015°25'0 0.0
2017-Oct-16 19:00N 28°07' W 015°25'0 0.0
2017-Oct-16 18:30N 28°07' W 015°25'0 0.0
2017-Oct-16 18:00N 28°07' W 015°25'0 0.0
2017-Oct-16 17:03N 28°07' W 015°25'0 0.0
2017-Oct-16 16:51N 28°07' W 015°25'0 0.0
2017-Oct-16 16:21N 28°07' W 015°25'0 0.0
2017-Oct-16 15:54N 28°07' W 015°25'0 0.0
2017-Oct-16 15:21N 28°07' W 015°25'0 0.0
2017-Oct-16 14:54N 28°07' W 015°25'0 0.0
2017-Oct-16 14:24N 28°07' W 015°25'  

Dump ship's entire track history